Main page
METAR-TAF:

METAR-TAF

Airports :

Resistencia International Airport

Resistencia, Argentina

latitude: 27-27S, longitude: 059-03W, elevation: 53 m

Current weather observation

The report was made 44 minutes ago, at 19:00 UTC
Wind 7 kt from the East/Southeast, varying between East and South/Southeast
Temperature 25°C
Humidity 26%
Pressure 1020 hPa
Visibility 10 km or more
no clouds below 1500 m and no cumulonimbus

METAR: SARE 161900Z 11007KT 080V150 CAVOK 25/04 Q1020

Time: 16:44 (19:44 UTC)

Forecast

The report was made 2 hours and 44 minutes ago, at 17:00 UTC
Forecast valid from 16 at 18 UTC to 17 at 18 UTC
Wind 5 kt from the East
Visibility 10 km or more
no clouds below 1500 m and no cumulonimbus

TAF: SARE 161700Z 1618/1718 09005KT CAVOK TX24/1619Z TN10/1710Z

Weather observations and forecasts of more than 4000 airports (METAR and TAF reports).

The available stations are represented by yellow and red dots on the map.

Hover mouse over dot to see the name of the station.

Then click to see weather observations and forecasts.

To change the map : click on the green buttons with a black cross to zoom in, on the green button with a dash to zoom out, or on the green arrows for adjacent maps.


METAR-TAF: